createdAt,value
2023-10-20T00:01:35.487Z,9.47
2023-10-20T00:06:40.949Z,9.59
2023-10-20T00:11:46.417Z,9.36
2023-10-20T00:16:50.239Z,9.18
2023-10-20T00:21:56.433Z,9.35
2023-10-20T00:27:00.265Z,9.15
2023-10-20T00:32:05.932Z,9.37
2023-10-20T00:37:12.201Z,9.16
2023-10-20T00:42:18.703Z,9.24
2023-10-20T00:47:23.010Z,9.11
2023-10-20T00:52:31.549Z,9.12
2023-10-20T00:57:35.925Z,9.11
2023-10-20T01:02:41.051Z,9.07
2023-10-20T01:07:46.350Z,8.79
2023-10-20T01:12:51.055Z,8.87
2023-10-20T01:17:55.980Z,8.45
2023-10-20T01:23:02.706Z,8.58
2023-10-20T01:28:09.339Z,8.77
2023-10-20T01:33:13.314Z,8.79
2023-10-20T01:38:20.576Z,8.97
2023-10-20T01:43:26.249Z,8.95
2023-10-20T01:48:31.818Z,9.07
2023-10-20T01:53:35.891Z,9.28
2023-10-20T01:58:41.379Z,9.15
2023-10-20T02:03:48.469Z,9.50
2023-10-20T02:08:52.531Z,8.82
2023-10-20T02:13:58.484Z,8.82
2023-10-20T02:19:02.677Z,8.96
2023-10-20T02:24:09.014Z,8.97
2023-10-20T02:29:14.368Z,9.02
2023-10-20T02:34:19.196Z,8.92
2023-10-20T02:39:24.620Z,8.52
2023-10-20T02:44:31.603Z,8.63
2023-10-20T02:49:36.630Z,8.62
2023-10-20T02:54:40.555Z,8.96
2023-10-20T02:59:47.819Z,8.44
2023-10-20T03:04:55.596Z,8.32
2023-10-20T03:09:59.884Z,8.15
2023-10-20T03:15:05.858Z,8.27
2023-10-20T03:20:10.750Z,8.21
2023-10-20T03:25:14.740Z,8.39
2023-10-20T03:30:20.777Z,8.64
2023-10-20T03:35:26.049Z,8.43
2023-10-20T03:40:37.652Z,8.31
2023-10-20T03:45:50.007Z,8.50
2023-10-20T03:50:55.070Z,8.67
2023-10-20T03:56:00.895Z,8.71
2023-10-20T04:01:08.072Z,8.32
2023-10-20T04:06:12.930Z,8.37
2023-10-20T04:11:20.328Z,8.54
2023-10-20T04:16:29.030Z,8.17
2023-10-20T04:21:34.033Z,8.30
2023-10-20T04:26:38.924Z,8.42
2023-10-20T04:32:02.490Z,8.46
2023-10-20T04:37:23.591Z,8.20
2023-10-20T04:43:01.293Z,8.05
2023-10-20T04:48:24.376Z,7.86
2023-10-20T04:53:45.128Z,7.57
2023-10-20T04:58:55.830Z,7.72
2023-10-20T05:04:12.195Z,8.02
2023-10-20T05:09:16.383Z,8.17
2023-10-20T05:14:20.447Z,8.19
2023-10-20T05:19:26.732Z,8.33
2023-10-20T05:24:30.637Z,8.27
2023-10-20T05:29:34.849Z,8.02
2023-10-20T05:34:42.798Z,7.98
2023-10-20T05:39:47.094Z,8.39
2023-10-20T05:45:02.489Z,8.91
2023-10-20T05:50:11.420Z,9.12
2023-10-20T05:55:15.546Z,9.26
2023-10-20T06:00:20.500Z,9.13
2023-10-20T06:05:26.052Z,9.70
2023-10-20T06:10:31.059Z,10.39
2023-10-20T06:15:35.292Z,10.68
2023-10-20T06:20:42.446Z,10.51
2023-10-20T06:25:46.382Z,10.84
2023-10-20T06:30:51.937Z,11.84
2023-10-20T06:36:01.786Z,12.97
2023-10-20T06:41:06.245Z,13.79
2023-10-20T06:46:11.005Z,14.18
2023-10-20T06:51:16.754Z,14.58
2023-10-20T06:56:26.795Z,15.53
2023-10-20T07:01:33.718Z,16.06
2023-10-20T07:06:39.096Z,16.15
2023-10-20T07:11:45.440Z,17.02
2023-10-20T07:16:49.590Z,17.39
2023-10-20T07:21:55.310Z,17.27
2023-10-20T07:27:00.387Z,18.52
2023-10-20T07:32:04.783Z,18.50
2023-10-20T07:37:11.948Z,18.79
2023-10-20T07:42:21.176Z,19.63
2023-10-20T07:47:25.600Z,19.52
2023-10-20T07:52:31.213Z,19.54
2023-10-20T07:57:36.582Z,19.99
2023-10-20T08:02:47.201Z,19.15
2023-10-20T08:07:52.580Z,19.90
2023-10-20T08:12:56.605Z,19.94
2023-10-20T08:18:00.845Z,20.90
2023-10-20T08:23:07.742Z,21.73
2023-10-20T08:28:11.849Z,22.71
2023-10-20T08:33:16.011Z,23.05
2023-10-20T08:38:21.829Z,23.04
2023-10-20T08:43:27.433Z,24.06
2023-10-20T08:48:33.104Z,24.64
2023-10-20T08:53:41.011Z,23.55
2023-10-20T08:58:47.906Z,23.70
2023-10-20T09:03:53.509Z,23.74
2023-10-20T09:09:00.579Z,23.04
2023-10-20T09:14:04.765Z,23.24
2023-10-20T09:19:12.219Z,23.07
2023-10-20T09:24:18.712Z,22.35
2023-10-20T09:29:24.028Z,22.11
2023-10-20T09:34:28.729Z,21.66
2023-10-20T09:39:41.497Z,21.19
2023-10-20T09:44:49.414Z,21.22
2023-10-20T09:49:55.612Z,21.82
2023-10-20T09:55:03.111Z,23.07
2023-10-20T10:00:09.684Z,22.95
2023-10-20T10:05:23.707Z,23.79
2023-10-20T10:10:29.109Z,23.58
2023-10-20T10:15:40.232Z,22.90
2023-10-20T10:20:47.097Z,23.17
2023-10-20T10:25:54.933Z,23.33
2023-10-20T10:30:58.797Z,23.49
2023-10-20T10:36:11.448Z,23.94
2023-10-20T10:41:24.337Z,24.99
2023-10-20T10:46:36.055Z,26.07
2023-10-20T10:51:45.295Z,26.68
2023-10-20T10:56:50.952Z,27.46
2023-10-20T11:01:55.745Z,27.70
2023-10-20T11:07:01.160Z,27.98
2023-10-20T11:12:10.471Z,27.98
2023-10-20T11:17:16.140Z,27.88
2023-10-20T11:22:21.644Z,27.90
2023-10-20T11:27:28.032Z,27.77
2023-10-20T11:32:32.333Z,28.00
2023-10-20T11:37:36.699Z,28.31
2023-10-20T11:42:43.071Z,28.36
2023-10-20T11:47:47.404Z,28.72
2023-10-20T11:52:51.929Z,28.99
2023-10-20T11:57:57.150Z,29.15
2023-10-20T12:03:01.345Z,29.49
2023-10-20T12:08:06.775Z,29.78
2023-10-20T12:13:13.625Z,29.81
2023-10-20T12:18:17.867Z,30.03
2023-10-20T12:23:22.131Z,30.02
2023-10-20T12:28:28.672Z,30.16
2023-10-20T12:33:33.516Z,30.45
2023-10-20T12:38:38.232Z,30.42
2023-10-20T12:43:44.113Z,30.08
2023-10-20T12:48:48.515Z,30.23
2023-10-20T12:53:52.778Z,30.12
2023-10-20T12:58:59.359Z,30.02
2023-10-20T13:04:03.643Z,29.83
2023-10-20T13:09:09.256Z,29.54
2023-10-20T13:14:16.272Z,29.89
2023-10-20T13:19:23.282Z,29.77
2023-10-20T13:24:27.167Z,29.67
2023-10-20T13:29:34.663Z,29.72
2023-10-20T13:34:38.854Z,29.75
2023-10-20T13:39:43.544Z,29.72
2023-10-20T13:44:49.474Z,29.50
2023-10-20T13:49:53.654Z,29.18
2023-10-20T13:54:57.564Z,28.69
2023-10-20T14:00:02.943Z,28.60
2023-10-20T14:05:13.711Z,28.46
2023-10-20T14:10:18.456Z,28.57
2023-10-20T14:15:24.579Z,28.44
2023-10-20T14:20:32.597Z,28.48
2023-10-20T14:25:36.471Z,28.16
2023-10-20T14:30:42.029Z,27.94
2023-10-20T14:35:46.061Z,27.43
2023-10-20T14:40:50.197Z,26.79
2023-10-20T14:45:59.328Z,25.93
2023-10-20T14:51:07.646Z,25.33
2023-10-20T14:56:17.746Z,25.02
2023-10-20T15:01:23.114Z,25.11
2023-10-20T15:06:27.862Z,24.40
2023-10-20T15:11:31.975Z,24.43
2023-10-20T15:16:37.379Z,23.93
2023-10-20T15:21:41.516Z,23.48
2023-10-20T15:26:47.096Z,22.59
2023-10-20T15:31:54.220Z,22.11
2023-10-20T15:37:00.682Z,21.08
2023-10-20T15:42:05.062Z,21.09
2023-10-20T15:47:10.699Z,20.92
2023-10-20T15:52:14.830Z,20.69
2023-10-20T15:57:19.794Z,20.40
2023-10-20T16:02:25.843Z,20.05
2023-10-20T16:07:30.429Z,19.91
2023-10-20T16:12:34.977Z,19.50
2023-10-20T16:17:41.016Z,19.20
2023-10-20T16:22:46.848Z,18.91
2023-10-20T16:27:51.017Z,18.87
2023-10-20T16:32:56.473Z,18.53
2023-10-20T16:38:00.602Z,18.18
2023-10-20T16:43:05.886Z,17.93
2023-10-20T16:48:11.954Z,17.75
2023-10-20T16:53:19.815Z,17.67
2023-10-20T16:58:23.822Z,18.03
2023-10-20T17:03:29.462Z,17.75
2023-10-20T17:08:33.942Z,17.52
2023-10-20T17:13:37.946Z,17.14
2023-10-20T17:18:43.362Z,16.92
2023-10-20T17:23:49.352Z,16.70
2023-10-20T17:28:53.323Z,16.48
2023-10-20T17:33:59.026Z,16.58
2023-10-20T17:39:03.662Z,16.45
2023-10-20T17:44:09.734Z,16.25
2023-10-20T17:49:15.534Z,16.34
2023-10-20T17:54:19.740Z,16.16
2023-10-20T17:59:23.988Z,16.20
2023-10-20T18:04:31.678Z,16.04
2023-10-20T18:09:35.814Z,15.86
2023-10-20T18:14:40.493Z,15.75
2023-10-20T18:19:45.745Z,15.82
2023-10-20T18:24:53.063Z,15.96
2023-10-20T18:29:58.298Z,15.50
2023-10-20T18:35:06.681Z,15.28
2023-10-20T18:40:11.329Z,15.20
2023-10-20T18:45:15.433Z,15.07
2023-10-20T18:50:23.449Z,15.07
2023-10-20T18:55:28.528Z,15.23
2023-10-20T19:00:32.858Z,15.05
2023-10-20T19:05:39.702Z,15.15
2023-10-20T19:10:43.790Z,15.01
2023-10-20T19:15:48.219Z,15.30
2023-10-20T19:20:59.429Z,14.52
2023-10-20T19:26:09.091Z,14.34
2023-10-20T19:31:13.507Z,14.14
2023-10-20T19:36:18.823Z,14.19
2023-10-20T19:41:23.089Z,14.20
2023-10-20T19:46:26.994Z,14.17
2023-10-20T19:51:32.285Z,14.64
2023-10-20T19:56:37.662Z,14.31
2023-10-20T20:01:42.840Z,14.50
2023-10-20T20:06:48.288Z,14.66
2023-10-20T20:11:52.340Z,14.59
2023-10-20T20:16:57.238Z,14.41
2023-10-20T20:22:02.646Z,14.07
2023-10-20T20:27:06.774Z,14.02
2023-10-20T20:32:10.891Z,14.10
2023-10-20T20:37:16.163Z,14.02
2023-10-20T20:42:20.176Z,13.98
2023-10-20T20:47:24.147Z,14.31
2023-10-20T20:52:29.412Z,13.70
2023-10-20T20:57:34.856Z,13.09
2023-10-20T21:02:40.484Z,13.32
2023-10-20T21:07:46.715Z,13.06
2023-10-20T21:12:50.618Z,13.29
2023-10-20T21:17:55.093Z,13.37
2023-10-20T21:23:00.880Z,13.16
2023-10-20T21:28:05.435Z,13.21
2023-10-20T21:33:09.570Z,12.93
2023-10-20T21:38:15.020Z,13.05
2023-10-20T21:43:19.035Z,12.77
2023-10-20T21:48:23.005Z,12.47
2023-10-20T21:53:34.917Z,12.29
2023-10-20T21:58:40.164Z,12.34
2023-10-20T22:03:46.215Z,12.41
2023-10-20T22:08:52.849Z,12.47
2023-10-20T22:13:56.815Z,12.66
2023-10-20T22:19:00.667Z,12.44
2023-10-20T22:24:07.285Z,12.40
2023-10-20T22:29:12.322Z,12.63
2023-10-20T22:34:16.338Z,12.27
2023-10-20T22:39:24.021Z,12.09
2023-10-20T22:44:27.939Z,12.03
2023-10-20T22:49:32.030Z,12.03
2023-10-20T22:54:39.309Z,12.22
2023-10-20T22:59:43.285Z,11.59
2023-10-20T23:04:47.589Z,11.58
2023-10-20T23:09:53.122Z,11.44
2023-10-20T23:14:57.155Z,11.47
2023-10-20T23:20:01.103Z,11.76
2023-10-20T23:25:07.315Z,11.36
2023-10-20T23:30:13.091Z,11.32
2023-10-20T23:35:17.251Z,11.63
2023-10-20T23:40:23.102Z,11.58
2023-10-20T23:45:27.163Z,11.50
2023-10-20T23:50:31.044Z,11.41
2023-10-20T23:55:36.562Z,11.10
